createdAt,value
2024-03-05T02:18:23.667Z,85.76
2024-03-05T02:20:50.863Z,85.82
2024-03-05T02:23:17.959Z,85.85
2024-03-05T02:25:46.188Z,85.83
2024-03-05T02:28:14.709Z,85.82
2024-03-05T02:30:41.568Z,85.80
2024-03-05T02:33:08.835Z,85.79
2024-03-05T02:35:35.944Z,85.84
2024-03-05T02:38:07.375Z,85.86
2024-03-05T02:40:37.394Z,85.87
2024-03-05T02:43:04.894Z,85.89
2024-03-05T02:45:32.362Z,85.86
2024-03-05T02:48:07.727Z,85.86
2024-03-05T02:50:35.742Z,85.82
2024-03-05T02:53:04.369Z,85.82
2024-03-05T02:55:32.150Z,85.89
2024-03-05T02:58:00.075Z,85.89
2024-03-05T03:00:27.322Z,85.92
2024-03-05T03:02:54.950Z,86.01
2024-03-05T03:05:25.304Z,86.07
2024-03-05T03:07:53.553Z,86.01
2024-03-05T03:10:21.012Z,85.99
2024-03-05T03:12:49.481Z,85.93
2024-03-05T03:15:18.958Z,85.95
2024-03-05T03:17:46.363Z,85.94
2024-03-05T03:20:17.234Z,85.88
2024-03-05T03:22:45.352Z,85.91
2024-03-05T03:25:13.097Z,85.89
2024-03-05T03:27:44.299Z,85.96
2024-03-05T03:30:19.730Z,85.98
2024-03-05T03:32:52.390Z,86.03
2024-03-05T03:35:19.917Z,85.99
2024-03-05T03:37:48.008Z,85.94
2024-03-05T03:40:24.783Z,85.99
2024-03-05T03:42:52.864Z,86.04
2024-03-05T03:45:20.694Z,86.03
2024-03-05T03:47:48.658Z,86.05
2024-03-05T03:50:16.356Z,86.09
2024-03-05T03:52:45.598Z,86.12
2024-03-05T03:55:12.847Z,86.07
2024-03-05T03:57:40.967Z,86.09
2024-03-05T04:00:19.016Z,86.08
2024-03-05T04:02:48.128Z,86.11
2024-03-05T04:05:15.644Z,86.12
2024-03-05T04:07:44.222Z,86.12
2024-03-05T04:10:12.331Z,86.11
2024-03-05T04:12:42.508Z,86.14
2024-03-05T04:15:10.699Z,86.21
2024-03-05T04:17:43.986Z,86.22
2024-03-05T04:20:12.270Z,86.28
2024-03-05T04:22:41.043Z,86.13
2024-03-05T04:25:10.980Z,86.19
2024-03-05T04:27:48.744Z,86.21
2024-03-05T04:30:16.951Z,86.28
2024-03-05T04:32:59.216Z,86.31
2024-03-05T04:35:29.684Z,86.28
2024-03-05T04:37:58.392Z,86.23
2024-03-05T04:40:26.138Z,86.19
2024-03-05T04:42:59.053Z,86.16
2024-03-05T04:45:26.949Z,86.08
2024-03-05T04:47:58.154Z,85.95
2024-03-05T04:50:25.547Z,85.97
2024-03-05T04:52:59.046Z,85.98
2024-03-05T04:55:26.693Z,86.04
2024-03-05T04:58:03.469Z,86.04
2024-03-05T05:00:34.992Z,86.00
2024-03-05T05:03:05.602Z,86.09
2024-03-05T05:05:41.251Z,86.14
2024-03-05T05:08:09.517Z,86.15
2024-03-05T05:10:37.822Z,86.17
2024-03-05T05:13:05.288Z,86.13
2024-03-05T05:30:40.112Z,86.15
2024-03-05T05:33:09.251Z,86.27
2024-03-05T05:35:50.612Z,86.16
2024-03-05T05:38:19.251Z,86.17
2024-03-05T05:40:53.027Z,86.20
2024-03-05T05:43:21.508Z,86.18
2024-03-05T05:45:50.165Z,86.02
2024-03-05T05:48:29.285Z,85.96
2024-03-05T05:51:13.921Z,85.96
2024-03-05T05:54:27.252Z,85.87
2024-03-05T05:57:07.794Z,85.86
2024-03-05T06:02:55.500Z,85.86
2024-03-05T06:05:42.307Z,85.82
2024-03-05T06:17:39.914Z,85.68
2024-03-05T06:27:18.493Z,85.71
2024-03-05T06:33:15.326Z,85.81
2024-03-05T06:36:19.005Z,85.92
2024-03-05T06:39:28.724Z,85.95
2024-03-05T06:45:34.288Z,86.01
2024-03-05T06:51:34.108Z,86.06
2024-03-05T06:54:29.258Z,86.12
2024-03-05T06:57:19.063Z,86.18
2024-03-05T07:00:14.444Z,86.23
2024-03-05T07:08:56.768Z,86.22
2024-03-05T07:14:42.412Z,86.23
2024-03-05T07:20:32.140Z,86.35
2024-03-05T07:34:46.286Z,86.74
2024-03-05T07:37:15.397Z,86.85
2024-03-05T07:43:37.166Z,86.82
2024-03-05T07:46:08.018Z,86.94
2024-03-05T07:48:48.336Z,86.97
2024-03-05T07:51:21.260Z,86.84
2024-03-05T07:53:55.061Z,86.76
2024-03-05T07:56:25.927Z,86.79
2024-03-05T07:59:02.133Z,86.80
2024-03-05T08:01:49.000Z,86.73
2024-03-05T08:04:40.980Z,86.60
2024-03-05T08:09:55.136Z,86.52
2024-03-05T08:26:24.558Z,86.35
2024-03-05T08:29:01.638Z,86.33
2024-03-05T08:31:46.625Z,86.28
2024-03-05T08:34:14.759Z,86.26
2024-03-05T08:36:44.066Z,86.16
2024-03-05T08:39:22.201Z,86.19
2024-03-05T08:41:53.854Z,86.27
2024-03-05T08:44:21.752Z,86.26
2024-03-05T08:46:55.621Z,86.27
2024-03-05T08:49:27.550Z,86.27
2024-03-05T08:52:10.420Z,86.14
2024-03-05T08:57:49.563Z,85.91
2024-03-05T09:00:49.304Z,85.89
2024-03-05T09:03:16.955Z,86.02
2024-03-05T09:05:47.679Z,86.04
2024-03-05T09:08:15.482Z,86.08
2024-03-05T09:10:46.047Z,85.91
2024-03-05T09:13:17.725Z,85.85
2024-03-05T09:15:47.312Z,85.90
2024-03-05T09:18:23.747Z,85.88
2024-03-05T09:20:57.425Z,85.85
2024-03-05T09:23:24.134Z,85.84
2024-03-05T09:25:54.364Z,85.97
2024-03-05T09:28:22.429Z,85.80
2024-03-05T09:30:49.468Z,85.85
2024-03-05T09:33:18.888Z,85.83
2024-03-05T09:35:53.879Z,85.93
2024-03-05T09:38:27.229Z,85.96
2024-03-05T09:40:58.789Z,85.86
2024-03-05T09:43:27.424Z,86.06
2024-03-05T09:46:06.314Z,86.15
2024-03-05T09:48:36.546Z,85.89
2024-03-05T09:51:04.246Z,85.62
2024-03-05T09:53:36.050Z,85.53
2024-03-05T09:56:25.952Z,85.48
2024-03-05T09:58:53.368Z,85.53
2024-03-05T10:01:23.128Z,85.57
2024-03-05T10:03:50.320Z,85.44
2024-03-05T10:06:19.984Z,85.46
2024-03-05T10:08:47.680Z,85.45
2024-03-05T10:11:17.023Z,85.31
2024-03-05T10:13:44.663Z,85.15
2024-03-05T10:16:24.089Z,85.12
2024-03-05T10:18:54.091Z,84.97
2024-03-05T10:21:26.517Z,84.86
2024-03-05T10:24:06.444Z,84.78
2024-03-05T10:26:40.250Z,84.79
2024-03-05T10:29:12.786Z,84.75
2024-03-05T10:31:44.699Z,84.68
2024-03-05T10:34:13.718Z,84.68
2024-03-05T10:36:44.219Z,84.77
2024-03-05T10:39:16.315Z,84.68
2024-03-05T10:41:51.095Z,84.73
2024-03-05T10:44:20.921Z,84.74
2024-03-05T10:46:52.707Z,84.88
2024-03-05T10:49:21.106Z,84.87
2024-03-05T10:51:58.267Z,84.92
2024-03-05T10:54:27.443Z,84.93
2024-03-05T10:56:58.358Z,84.92
2024-03-05T10:59:40.616Z,84.93
2024-03-05T11:02:18.853Z,84.86
2024-03-05T11:04:47.777Z,84.81
2024-03-05T11:07:18.239Z,84.68
2024-03-05T11:09:49.655Z,84.73
2024-03-05T11:12:19.812Z,84.69
2024-03-05T11:14:51.058Z,84.78
2024-03-05T11:17:19.393Z,84.66
2024-03-05T11:19:49.513Z,84.61
2024-03-05T11:22:31.775Z,84.68
2024-03-05T11:25:14.557Z,84.52
2024-03-05T11:28:04.245Z,84.53
2024-03-05T11:30:32.622Z,84.46
2024-03-05T11:33:22.631Z,84.53
2024-03-05T11:35:50.862Z,84.45
2024-03-05T11:38:23.314Z,84.37
2024-03-05T11:40:50.975Z,84.33
2024-03-05T11:43:37.028Z,84.27
2024-03-05T11:46:04.102Z,84.32
2024-03-05T11:48:31.233Z,84.40
2024-03-05T11:51:03.846Z,84.38
2024-03-05T11:53:34.799Z,84.46
2024-03-05T11:56:10.123Z,84.55
2024-03-05T11:58:44.519Z,84.63
2024-03-05T12:01:17.729Z,84.50
2024-03-05T12:03:53.002Z,84.40
2024-03-05T12:06:28.598Z,84.44
2024-03-05T12:09:01.090Z,84.36
2024-03-05T12:11:28.253Z,84.39
2024-03-05T12:14:08.148Z,84.45
2024-03-05T12:16:35.355Z,84.55
2024-03-05T12:19:08.122Z,84.44
2024-03-05T12:21:37.867Z,84.35
2024-03-05T12:24:06.329Z,84.39
2024-03-05T12:26:35.357Z,84.37
2024-03-05T12:32:20.906Z,84.38
2024-03-05T12:34:50.851Z,84.46
2024-03-05T12:37:20.796Z,84.46
2024-03-05T12:39:59.329Z,84.56
2024-03-05T12:42:26.236Z,84.49
2024-03-05T12:45:13.605Z,84.51
2024-03-05T12:47:40.609Z,84.47
2024-03-05T12:50:08.886Z,84.54
2024-03-05T12:52:40.996Z,84.47
2024-03-05T12:55:11.974Z,84.40
2024-03-05T12:57:40.974Z,84.13
2024-03-05T13:00:12.412Z,83.97
2024-03-05T13:02:40.107Z,83.81
2024-03-05T13:05:11.295Z,83.89
2024-03-05T13:07:40.730Z,83.74
2024-03-05T13:10:12.361Z,83.86
2024-03-05T13:12:40.818Z,83.77
2024-03-05T13:15:09.861Z,83.80
2024-03-05T13:17:39.412Z,83.96
2024-03-05T13:20:21.447Z,83.95
2024-03-05T13:25:52.837Z,83.97
2024-03-05T13:28:32.988Z,83.93
2024-03-05T13:31:01.083Z,83.98
2024-03-05T13:36:10.633Z,84.26
2024-03-05T13:38:45.026Z,84.16
2024-03-05T13:41:16.785Z,84.04
2024-03-05T13:43:47.472Z,83.96
2024-03-05T13:46:15.101Z,84.00
2024-03-05T13:52:00.013Z,84.49
2024-03-05T13:54:28.705Z,84.28
2024-03-05T13:56:56.053Z,84.23
2024-03-05T13:59:30.404Z,84.04
2024-03-05T14:02:10.562Z,84.11
2024-03-05T14:04:45.650Z,84.03
2024-03-05T14:07:29.643Z,84.00
2024-03-05T14:09:57.778Z,84.04
2024-03-05T14:12:25.398Z,83.94
2024-03-05T14:14:55.439Z,83.83
2024-03-05T14:17:22.532Z,83.89
2024-03-05T14:19:49.947Z,83.95
2024-03-05T14:22:18.643Z,84.01
2024-03-05T14:25:19.096Z,84.12
2024-03-05T14:27:49.155Z,84.08
2024-03-05T14:30:23.733Z,84.10
2024-03-05T14:33:06.019Z,84.08
2024-03-05T14:35:34.933Z,83.98
2024-03-05T14:41:06.519Z,83.94
2024-03-05T14:43:34.593Z,83.96
2024-03-05T14:46:13.057Z,83.98
2024-03-05T14:48:48.863Z,83.80
2024-03-05T14:54:29.268Z,83.80
2024-03-05T14:57:06.482Z,83.83
2024-03-05T14:59:36.702Z,83.85
2024-03-05T15:02:07.501Z,83.89
2024-03-05T15:04:34.616Z,83.98
2024-03-05T15:07:04.377Z,84.00
2024-03-05T15:09:37.768Z,83.93
2024-03-05T15:12:05.371Z,83.87
2024-03-05T15:14:46.159Z,83.88
2024-03-05T15:17:15.590Z,83.87
2024-03-05T15:20:14.598Z,83.96
2024-03-05T15:22:49.001Z,84.03
2024-03-05T15:25:50.924Z,84.04
2024-03-05T15:28:18.791Z,84.03
2024-03-05T15:30:45.806Z,84.12
2024-03-05T15:35:42.118Z,84.23
2024-03-05T15:38:32.366Z,84.32
2024-03-05T15:41:11.877Z,84.34
2024-03-05T15:43:38.990Z,84.37
2024-03-05T15:46:06.079Z,84.43
2024-03-05T15:48:34.353Z,84.46
2024-03-05T15:51:02.080Z,84.50
2024-03-05T15:59:50.267Z,84.68
2024-03-05T16:02:18.424Z,84.63
2024-03-05T16:05:05.112Z,84.46
2024-03-05T16:07:33.610Z,84.35
2024-03-05T16:21:51.424Z,84.43
2024-03-05T16:24:24.019Z,84.37
2024-03-05T16:32:19.109Z,84.71
2024-03-05T16:34:46.911Z,84.84
2024-03-05T16:37:17.086Z,84.93
2024-03-05T16:39:53.930Z,84.99
2024-03-05T16:45:01.411Z,85.09
2024-03-05T16:48:01.195Z,85.15
2024-03-05T16:50:29.255Z,85.18
2024-03-05T16:53:30.271Z,85.30
2024-03-05T16:55:57.357Z,85.32
2024-03-05T16:59:48.906Z,85.40
2024-03-05T17:02:18.288Z,85.34
2024-03-05T17:06:50.550Z,85.55
2024-03-05T17:09:33.490Z,85.49
2024-03-05T17:12:01.658Z,85.63
2024-03-05T17:14:28.400Z,85.73
2024-03-05T17:17:25.685Z,85.78
2024-03-05T17:20:11.097Z,85.79
2024-03-05T17:22:38.078Z,85.86
2024-03-05T17:25:38.301Z,85.95
2024-03-05T17:28:14.419Z,85.98
2024-03-05T17:33:35.861Z,86.13
2024-03-05T17:36:09.424Z,86.25
2024-03-05T17:38:42.700Z,86.37
2024-03-05T17:41:26.919Z,86.46
2024-03-05T17:47:12.287Z,86.57
2024-03-05T17:49:39.782Z,86.71
2024-03-05T17:52:34.104Z,86.76
2024-03-05T17:55:41.248Z,86.75
2024-03-05T17:59:00.002Z,86.78
2024-03-05T18:01:27.784Z,86.78
2024-03-05T18:21:57.766Z,88.00
2024-03-05T18:24:29.271Z,88.02
2024-03-05T18:27:08.268Z,87.98
2024-03-05T19:14:13.779Z,87.96
2024-03-05T20:10:49.418Z,87.67
2024-03-05T20:13:18.319Z,87.57
2024-03-05T20:15:48.485Z,87.54
2024-03-05T20:18:15.776Z,87.51
2024-03-05T20:20:43.640Z,87.48
2024-03-05T20:23:10.778Z,87.48
2024-03-05T20:31:46.009Z,87.46
2024-03-05T20:34:26.269Z,87.53
2024-03-05T20:36:59.369Z,87.57
2024-03-05T20:39:26.034Z,87.63
2024-03-05T20:41:52.792Z,87.65
2024-03-05T20:44:29.761Z,87.66
2024-03-05T20:47:13.293Z,87.73
2024-03-05T20:49:41.625Z,87.78
2024-03-05T20:52:08.714Z,87.78
2024-03-05T20:54:40.696Z,87.79
2024-03-05T20:57:07.818Z,87.81
2024-03-05T20:59:37.881Z,87.85
2024-03-05T21:02:10.735Z,87.87
2024-03-05T21:04:50.395Z,87.90
2024-03-05T21:07:17.429Z,87.92
2024-03-05T21:30:56.863Z,88.40
2024-03-05T21:33:25.059Z,88.43
2024-03-05T21:35:52.296Z,88.41
2024-03-05T21:38:19.965Z,88.40
2024-03-05T21:40:48.493Z,88.38
2024-03-05T21:43:16.779Z,88.37
2024-03-05T21:46:30.792Z,88.39
2024-03-05T21:49:06.856Z,88.34
2024-03-05T21:51:35.244Z,88.38
2024-03-05T21:54:02.550Z,88.43
2024-03-05T21:56:30.778Z,88.46
2024-03-05T21:58:59.394Z,88.47
2024-03-05T22:01:26.740Z,88.48
2024-03-05T22:03:53.920Z,88.49
2024-03-05T22:06:25.023Z,88.49
2024-03-05T22:20:59.350Z,88.50
2024-03-05T22:24:33.045Z,88.55
2024-03-05T22:26:59.679Z,88.51
2024-03-05T22:29:48.049Z,88.63
2024-03-05T22:35:59.844Z,88.65
2024-03-05T22:38:22.469Z,88.55
2024-03-05T22:40:49.548Z,88.67
2024-03-05T22:48:18.666Z,88.68
2024-03-05T22:50:55.446Z,88.65
2024-03-05T22:53:23.403Z,88.68
2024-03-05T22:55:50.282Z,88.70
2024-03-05T22:59:38.267Z,88.74
2024-03-05T23:02:22.119Z,88.71
2024-03-05T23:05:08.162Z,88.73
2024-03-05T23:07:46.846Z,88.72
2024-03-05T23:10:36.936Z,88.75
2024-03-05T23:20:38.832Z,88.70
2024-03-05T23:23:30.435Z,88.73
2024-03-05T23:28:52.162Z,88.82
2024-03-05T23:31:30.073Z,88.83
2024-03-05T23:34:52.679Z,88.83
2024-03-05T23:37:19.658Z,88.83
2024-03-05T23:44:30.879Z,88.79
2024-03-05T23:56:29.932Z,88.87
